Time;durP1;ratioP1;P1;durP2;ratioP2;P2;SDS_P1;SDS_P2;PMS_P1;PMS_P2;Temp;Humidity;BMP_temperature;BMP_pressure;BME280_temperature;BME280_humidity;BME280_pressure;Samples;Min_cycle;Max_cycle;Signal;HPM_P1;HPM_P2
2023/06/22 03:05:44;;;;;;;11.88;8.35;;;;;;;21.17;49.67;100707.03;20858252;28;20647;-79
2023/06/22 03:15:48;;;;;;;9.75;8.85;;;;;;;21.83;47.07;100700.34;20822378;28;20220;-77
2023/06/22 03:25:51;;;;;;;8.73;6.93;;;;;;;21.53;49.19;100686.16;20796804;28;20585;-78
2023/06/22 03:35:53;;;;;;;9.55;7.93;;;;;;;21.32;49.28;100698.22;20790201;28;20653;-78
2023/06/22 03:45:57;;;;;;;10.75;9.30;;;;;;;21.40;49.18;100691.38;20813650;28;20481;-78
2023/06/22 03:56:00;;;;;;;13.02;11.18;;;;;;;21.15;49.97;100693.13;20852961;28;20228;-79
2023/06/22 04:06:02;;;;;;;15.35;12.55;;;;;;;20.98;51.07;100668.00;20848998;28;20216;-78
2023/06/22 04:16:05;;;;;;;19.20;11.23;;;;;;;21.06;50.80;100663.97;20808054;28;20274;-77
2023/06/22 04:26:08;;;;;;;15.65;10.68;;;;;;;20.86;51.90;100682.56;20790754;28;20530;-81
2023/06/22 04:36:13;;;;;;;15.73;12.20;;;;;;;21.41;49.26;100672.97;20778436;28;20225;-77
2023/06/22 04:46:15;;;;;;;15.20;11.57;;;;;;;21.35;49.16;100680.25;20796772;28;20259;-80
2023/06/22 04:56:21;;;;;;;13.07;11.73;;;;;;;21.19;50.21;100676.81;20809598;28;20228;-81
2023/06/22 05:06:24;;;;;;;13.70;12.25;;;;;;;20.91;50.79;100660.16;20813740;28;20259;-80
2023/06/22 05:16:27;;;;;;;13.63;10.48;;;;;;;21.35;48.48;100685.16;20772369;28;20564;-77
2023/06/22 05:26:31;;;;;;;11.02;9.90;;;;;;;21.44;48.76;100683.59;20796068;28;20732;-78
2023/06/22 05:36:34;;;;;;;12.05;10.30;;;;;;;21.25;49.10;100683.03;20779929;28;20263;-77
2023/06/22 05:46:37;;;;;;;11.82;9.45;;;;;;;21.95;46.67;100685.69;20763941;28;20254;-78
2023/06/22 05:56:39;;;;;;;10.82;9.50;;;;;;;21.95;47.82;100679.16;20776066;28;20303;-77
2023/06/22 06:06:42;;;;;;;8.50;7.70;;;;;;;22.67;45.47;100675.47;20788964;28;20255;-77
2023/06/22 06:16:45;;;;;;;10.88;9.77;;;;;;;22.35;46.86;100676.09;20802432;28;20220;-78
2023/06/22 06:26:48;;;;;;;12.20;9.55;;;;;;;22.70;47.39;100664.03;20789160;28;20259;-78
2023/06/22 06:36:51;;;;;;;11.40;9.50;;;;;;;22.93;46.69;100657.09;20792428;28;20220;-78
2023/06/22 06:46:54;;;;;;;13.38;10.02;;;;;;;22.52;48.17;100656.56;20798721;28;20254;-77
2023/06/22 06:56:56;;;;;;;11.52;10.32;;;;;;;22.49;49.66;100669.66;20775266;28;20224;-77
2023/06/22 07:07:01;;;;;;;12.80;11.32;;;;;;;23.17;47.73;100662.94;20781324;28;20270;-78
2023/06/22 07:17:04;;;;;;;15.20;13.02;;;;;;;22.83;48.86;100648.06;20774433;28;20216;-77
2023/06/22 07:27:07;;;;;;;14.75;13.25;;;;;;;22.14;51.40;100653.88;20779570;28;20192;-79
2023/06/22 07:37:10;;;;;;;15.95;13.27;;;;;;;22.21;51.79;100638.78;20782730;28;20633;-77
2023/06/22 07:47:12;;;;;;;17.60;13.20;;;;;;;22.66;50.77;100622.19;20811142;28;20242;-77
2023/06/22 07:57:15;;;;;;;18.98;14.73;;;;;;;22.55;53.92;100622.16;20772223;28;20279;-79
2023/06/22 08:07:19;;;;;;;18.65;16.55;;;;;;;22.85;56.49;100613.25;20800033;28;20220;-78
2023/06/22 08:17:23;;;;;;;21.20;16.38;;;;;;;23.55;54.60;100597.31;20801984;28;20220;-80
2023/06/22 08:27:28;;;;;;;19.33;16.10;;;;;;;23.07;55.03;100585.41;20801694;28;20196;-78
2023/06/22 08:37:30;;;;;;;15.10;12.93;;;;;;;23.92;51.42;100571.78;20798118;28;20699;-79
2023/06/22 08:47:34;;;;;;;17.60;15.23;;;;;;;24.15;51.49;100559.84;20793334;28;20196;-78
2023/06/22 08:57:39;;;;;;;15.27;13.63;;;;;;;24.15;51.70;100547.53;20799711;28;20220;-78
2023/06/22 09:07:42;;;;;;;14.05;12.45;;;;;;;24.94;50.05;100543.78;20766742;28;20225;-79
2023/06/22 09:17:46;;;;;;;10.48;9.23;;;;;;;25.80;46.96;100525.75;20789139;28;20216;-78
2023/06/22 09:27:49;;;;;;;9.85;8.85;;;;;;;26.09;43.73;100524.16;20822931;28;20196;-79
2023/06/22 09:37:51;;;;;;;11.80;7.55;;;;;;;26.66;43.74;100498.22;20782467;28;20225;-77
2023/06/22 09:47:57;;;;;;;7.63;6.93;;;;;;;26.23;42.47;100480.69;20771825;28;20201;-78
2023/06/22 09:57:59;;;;;;;9.82;8.43;;;;;;;25.96;45.02;100474.88;20778715;28;20220;-78
2023/06/22 10:08:02;;;;;;;9.18;8.27;;;;;;;26.29;44.41;100478.97;20822149;28;20256;-78
2023/06/22 10:18:05;;;;;;;9.25;8.35;;;;;;;26.29;45.15;100461.66;20796281;28;20220;-78
2023/06/22 10:28:07;;;;;;;11.80;8.18;;;;;;;26.26;45.66;100442.34;20839593;28;21168;-78
2023/06/22 10:38:10;;;;;;;7.72;7.03;;;;;;;27.00;41.92;100434.56;20833506;28;20216;-78
2023/06/22 10:48:12;;;;;;;10.30;7.30;;;;;;;26.20;46.15;100426.75;20807521;28;20644;-78
2023/06/22 10:58:15;;;;;;;8.75;7.70;;;;;;;26.65;44.11;100403.38;20785346;28;20220;-77
2023/06/22 11:08:18;;;;;;;10.10;7.25;;;;;;;26.58;45.23;100424.53;20823278;28;20294;-79
2023/06/22 11:18:23;;;;;;;7.35;6.57;;;;;;;25.71;46.07;100473.53;20772783;28;20274;-78
2023/06/22 11:28:25;;;;;;;7.78;6.93;;;;;;;26.13;46.62;100480.81;20786232;28;20254;-77
2023/06/22 11:38:28;;;;;;;11.48;9.05;;;;;;;23.94;59.66;100490.06;20823525;28;20618;-79
2023/06/22 11:48:31;;;;;;;11.50;10.30;;;;;;;23.64;63.79;100476.25;20805111;28;20651;-77
2023/06/22 11:58:33;;;;;;;15.95;12.07;;;;;;;23.35;69.34;100467.69;20791171;28;20559;-77
2023/06/22 12:08:36;;;;;;;18.23;14.23;;;;;;;23.10;70.31;100498.47;20728300;28;20271;-77
2023/06/22 12:18:40;;;;;;;15.27;13.55;;;;;;;23.15;68.85;100472.22;20720870;28;20221;-78
2023/06/22 12:28:43;;;;;;;17.58;15.32;;;;;;;22.43;72.39;100424.66;20720955;28;20545;-77
2023/06/22 12:38:45;;;;;;;19.05;15.65;;;;;;;22.52;73.71;100445.16;20713221;28;20221;-77
2023/06/22 12:48:48;;;;;;;19.33;16.20;;;;;;;22.32;73.18;100347.22;20706721;28;20205;-77
2023/06/22 12:58:50;;;;;;;17.20;15.50;;;;;;;22.13;70.73;100339.81;20682087;28;20210;-77
2023/06/22 13:08:53;;;;;;;18.25;16.27;;;;;;;22.77;71.59;100325.47;20721164;28;20558;-77
2023/06/22 13:18:58;;;;;;;16.13;14.52;;;;;;;22.65;70.69;100311.56;20711115;28;20221;-77
2023/06/22 13:29:01;;;;;;;16.98;13.70;;;;;;;23.32;68.10;100298.25;20722949;28;20209;-78
2023/06/22 13:39:03;;;;;;;18.73;15.25;;;;;;;23.17;71.89;100283.16;20741221;28;20265;-77
2023/06/22 13:49:06;;;;;;;17.58;15.02;;;;;;;23.78;67.73;100270.09;20695135;28;20229;-77
2023/06/22 13:59:11;;;;;;;16.75;15.07;;;;;;;23.28;68.80;100260.94;20727809;28;20296;-77
2023/06/22 14:09:14;;;;;;;16.95;15.20;;;;;;;22.81;69.70;100248.81;20782477;28;20228;-76
2023/06/22 14:19:18;;;;;;;14.98;13.50;;;;;;;23.23;66.58;100235.56;20806998;28;20622;-78
2023/06/22 14:29:21;;;;;;;14.10;12.80;;;;;;;22.96;66.91;100191.38;20807576;28;20675;-77
2023/06/22 14:39:24;;;;;;;15.82;14.43;;;;;;;24.32;65.96;100194.91;20786989;28;20224;-78
2023/06/22 14:49:26;;;;;;;16.27;14.65;;;;;;;23.34;66.46;100193.22;20826280;28;20281;-79
2023/06/22 14:59:29;;;;;;;17.58;15.40;;;;;;;23.06;67.53;100159.78;20789014;28;20228;-78
2023/06/22 15:09:31;;;;;;;16.90;15.30;;;;;;;23.70;64.07;100113.38;20786265;28;20228;-79
2023/06/22 15:19:36;;;;;;;18.55;16.65;;;;;;;24.02;64.31;100113.06;20752166;28;20900;-79
2023/06/22 15:29:38;;;;;;;19.42;17.45;;;;;;;23.08;67.35;100107.69;20735085;28;20718;-78
2023/06/22 15:39:41;;;;;;;22.23;20.02;;;;;;;23.12;66.66;100105.63;20707337;28;20225;-78
2023/06/22 15:49:43;;;;;;;26.38;23.70;;;;;;;23.00;68.74;100054.44;20730751;28;20251;-77
2023/06/22 15:59:46;;;;;;;31.05;27.85;;;;;;;22.89;70.40;100080.31;20722531;28;20228;-79
2023/06/22 16:09:49;;;;;;;27.52;24.65;;;;;;;22.34;70.44;100123.19;20698731;28;20256;-78
2023/06/22 16:19:54;;;;;;;30.40;27.30;;;;;;;22.29;72.37;100127.28;20697952;28;20927;-77
2023/06/22 16:29:56;;;;;;;36.60;25.58;;;;;;;21.95;72.19;100078.22;20694371;28;20271;-78
2023/06/22 16:39:59;;;;;;;27.05;24.10;;;;;;;20.99;75.38;100043.91;20688756;28;20542;-78
2023/06/22 16:50:02;;;;;;;39.08;34.85;;;;;;;21.29;73.97;100046.41;20703461;28;20197;-80
2023/06/22 17:00:09;;;;;;;24.67;22.05;;;;;;;21.28;72.02;100026.78;20722064;28;20236;-81
2023/06/22 17:10:12;;;;;;;38.55;34.78;;;;;;;21.05;75.43;100024.28;20758607;28;20546;-82
2023/06/22 17:20:16;;;;;;;29.35;26.35;;;;;;;20.94;74.67;100032.03;20802314;28;20269;-79
2023/06/22 17:30:20;;;;;;;26.98;24.08;;;;;;;21.21;73.11;100010.41;20785713;28;20255;-79
2023/06/22 17:40:26;;;;;;;25.35;22.83;;;;;;;20.53;75.98;99975.16;20799256;28;20256;-81
2023/06/22 17:50:30;;;;;;;25.00;20.50;;;;;;;20.60;73.88;99963.78;20784900;28;20223;-79
2023/06/22 18:00:33;;;;;;;25.35;22.75;;;;;;;20.18;77.34;99952.22;20770763;28;20220;-83
2023/06/22 18:10:36;;;;;;;25.48;22.80;;;;;;;20.71;74.97;99967.47;20803241;28;20196;-80
2023/06/22 18:20:39;;;;;;;29.02;24.25;;;;;;;20.82;74.65;99960.94;20763060;28;20274;-79
2023/06/22 18:30:42;;;;;;;27.98;25.08;;;;;;;20.64;76.13;99935.22;20769566;28;20251;-79
2023/06/22 18:40:50;;;;;;;28.35;25.50;;;;;;;20.79;75.18;99930.28;20760717;28;20224;-78
2023/06/22 18:50:53;;;;;;;28.30;25.30;;;;;;;21.03;74.58;99900.88;20766939;28;20223;-78
2023/06/22 19:01:17;;;;;;;19.05;17.17;;;;;;;20.64;75.32;99896.00;20789766;28;20282;-79
2023/06/22 19:11:26;;;;;;;8.43;6.90;;;;;;;20.25;75.77;99915.13;20812336;28;20270;-78
2023/06/22 19:21:29;;;;;;;4.10;3.25;;;;;;;19.91;74.18;99912.53;20780361;28;20273;-79
2023/06/22 19:31:32;;;;;;;7.03;3.00;;;;;;;20.01;73.86;99894.66;20807610;28;20705;-81
2023/06/22 19:41:35;;;;;;;10.05;7.45;;;;;;;20.07;74.45;99905.69;20766595;28;20580;-78
2023/06/22 19:51:38;;;;;;;14.38;10.57;;;;;;;20.11;76.39;99903.66;20779747;28;20734;-81
2023/06/22 20:01:41;;;;;;;18.42;15.57;;;;;;;20.40;74.63;99891.03;20791412;28;20228;-80
2023/06/22 20:11:44;;;;;;;25.02;17.52;;;;;;;20.14;76.45;99888.53;20790314;28;20242;-81
2023/06/22 20:21:47;;;;;;;27.08;21.10;;;;;;;20.89;74.43;99872.28;20770483;28;20224;-79
2023/06/22 20:32:04;;;;;;;28.73;24.70;;;;;;;20.82;75.02;99855.94;20771732;28;20243;-79
2023/06/22 20:42:07;;;;;;;34.38;30.73;;;;;;;21.26;73.70;99846.06;20795660;28;20213;-78
2023/06/22 20:52:10;;;;;;;40.08;35.75;;;;;;;21.52;72.40;99847.59;20785631;28;20563;-79
2023/06/22 21:02:14;;;;;;;40.38;36.13;;;;;;;21.29;72.46;99854.66;20786690;28;20242;-79
2023/06/22 21:12:17;;;;;;;9.75;8.18;;;;;;;19.07;74.57;99882.38;20802371;28;20197;-81
2023/06/22 21:22:20;;;;;;;7.55;5.55;;;;;;;17.68;78.25;99927.75;20822601;28;21098;-82
2023/06/22 21:32:23;;;;;;;3.00;2.80;;;;;;;17.69;76.58;99970.06;20788773;28;20220;-85
2023/06/22 21:42:28;;;;;;;2.50;1.05;;;;;;;17.25;76.30;100006.81;20817994;28;20316;-81
2023/06/22 21:52:31;;;;;;;1.77;0.82;;;;;;;16.15;82.06;100050.19;20795997;28;20196;-84
2023/06/22 22:02:34;;;;;;;1.20;0.80;;;;;;;16.51;80.33;100078.16;20792793;28;20262;-82
2023/06/22 22:12:37;;;;;;;4.50;1.67;;;;;;;16.40;81.12;100093.31;20799588;28;20659;-82
2023/06/22 22:22:40;;;;;;;5.82;3.05;;;;;;;16.05;81.34;100124.59;20818198;28;20752;-82
2023/06/22 22:32:44;;;;;;;6.83;4.27;;;;;;;15.88;80.71;100144.88;20752871;28;20251;-81
2023/06/22 22:42:47;;;;;;;6.93;5.00;;;;;;;16.48;77.97;100137.72;20773520;28;20290;-82
2023/06/22 22:52:49;;;;;;;4.30;3.90;;;;;;;15.57;80.35;100140.88;20772470;28;20250;-81
2023/06/22 23:02:52;;;;;;;4.97;4.57;;;;;;;15.86;78.88;100175.63;20752296;28;20306;-84
2023/06/22 23:12:55;;;;;;;5.13;4.73;;;;;;;16.60;75.80;100210.63;20788586;28;20748;-87
2023/06/22 23:22:57;;;;;;;6.07;5.43;;;;;;;16.18;77.76;100216.97;20840290;28;20297;-86
2023/06/22 23:33:00;;;;;;;6.03;5.23;;;;;;;16.30;76.80;100236.72;20809056;28;20699;-85
2023/06/22 23:43:03;;;;;;;5.82;5.10;;;;;;;16.89;74.80;100241.28;20813131;28;20216;-85
2023/06/22 23:53:08;;;;;;;5.30;4.90;;;;;;;16.25;77.07;100256.88;20807663;28;20201;-84
